ESSP/NRK METAR and TAF weather

Enter ICAO airport designator
Station Type Date Time Source
ESSP METAR 2019/10/21 22:20 UTC NOAA

ESSP 212220Z 18004KT 9999 -DZ BKN050 09/09 Q1017


Station Type Date Time Source
ESSP Decoded METAR 2019/10/21 22:20 UTC NOAA

Norrkoping, Sweden (ESSP) 58-35N 016-09E 0M
Oct 21, 2019 - 06:20 PM EDT / 2019.10.21 2220 UTC
Wind: from the S (180 degrees) at 5 MPH (4 KT):0
Visibility: greater than 7 mile(s):0
Sky conditions: mostly cloudy
Weather: light drizzle
Temperature: 48 F (9 C)
Dew Point: 48 F (9 C)
Relative Humidity: 100%
Pressure (altimeter): 30.03 in. Hg (1017 hPa)
ob: ESSP 212220Z 18004KT 9999 -DZ BKN050 09/09 Q1017
cycle: 22

Station Type Date Time Source
ESSP TAF 2018/01/01 02:31 UTC NOAA

TAF ESSP 010130Z 0102/0206 16002KT 9999 BKN004 PROB40 0102/0106 4000 BR SCT004

Example: see airport list